Time;durP1;ratioP1;P1;durP2;ratioP2;P2;SDS_P1;SDS_P2;PMS_P1;PMS_P2;Temp;Humidity;BMP_temperature;BMP_pressure;BME280_temperature;BME280_humidity;BME280_pressure;Samples;Min_cycle;Max_cycle;Signal;HPM_P1;HPM_P2
2021/04/14 00:00:26;;;;;;;4.43;1.48;;;10.90;39.40;;;;;;6202721;28;20034;-75
2021/04/14 00:03:29;;;;;;;5.70;1.85;;;10.80;39.40;;;;;;6185503;28;20437;-76
2021/04/14 00:06:30;;;;;;;4.53;1.75;;;10.90;39.50;;;;;;6185380;28;20041;-76
2021/04/14 00:09:31;;;;;;;4.85;1.98;;;10.80;39.30;;;;;;6201889;28;20453;-75
2021/04/14 00:12:32;;;;;;;3.22;1.70;;;10.80;39.10;;;;;;6201913;28;20027;-75
2021/04/14 00:15:54;;;;;;;4.53;1.42;;;10.80;39.10;;;;;;6202040;28;20031;-76
2021/04/14 00:18:56;;;;;;;2.72;1.67;;;10.80;39.50;;;;;;6202560;28;20058;-75
2021/04/14 00:21:58;;;;;;;2.25;1.48;;;10.80;39.60;;;;;;6202577;28;20034;-76
2021/04/14 00:24:59;;;;;;;3.15;1.60;;;10.80;39.70;;;;;;6202075;28;20357;-76
2021/04/14 00:28:00;;;;;;;4.47;1.95;;;10.80;39.70;;;;;;6201654;28;20034;-76
2021/04/14 00:31:01;;;;;;;5.00;1.63;;;10.80;39.90;;;;;;6201674;28;20065;-74
2021/04/14 00:34:12;;;;;;;2.58;1.52;;;10.80;39.90;;;;;;6201437;28;20173;-75
2021/04/14 00:37:13;;;;;;;2.67;1.70;;;10.70;40.00;;;;;;6201741;28;20476;-74
2021/04/14 00:40:22;;;;;;;3.58;2.15;;;10.80;40.30;;;;;;6202652;28;20088;-75
2021/04/14 00:43:28;;;;;;;3.20;1.85;;;10.80;40.30;;;;;;6201858;28;20034;-74
2021/04/14 00:46:29;;;;;;;2.58;1.67;;;10.70;40.30;;;;;;6202804;28;20046;-75
2021/04/14 00:49:30;;;;;;;5.15;1.83;;;10.70;40.40;;;;;;6201511;28;20031;-74
2021/04/14 00:52:31;;;;;;;2.30;1.30;;;10.60;41.40;;;;;;6200260;28;20054;-75
2021/04/14 00:55:33;;;;;;;1.67;1.35;;;10.60;42.20;;;;;;6201599;28;20029;-76
2021/04/14 00:58:34;;;;;;;6.28;1.58;;;10.60;42.10;;;;;;6201805;28;20022;-75
2021/04/14 01:01:35;;;;;;;2.25;1.60;;;10.50;42.10;;;;;;6201696;28;20117;-77
2021/04/14 01:04:36;;;;;;;1.85;1.42;;;10.50;42.00;;;;;;6202669;28;20034;-77
2021/04/14 01:07:38;;;;;;;3.90;1.88;;;10.50;42.10;;;;;;6200875;28;20041;-74
2021/04/14 01:10:39;;;;;;;2.83;1.52;;;10.50;42.00;;;;;;6201260;28;20049;-76
2021/04/14 01:13:41;;;;;;;3.67;1.83;;;10.40;42.00;;;;;;6184746;28;20034;-75
2021/04/14 01:16:42;;;;;;;2.72;1.70;;;10.40;42.30;;;;;;6201030;28;20026;-76
2021/04/14 01:19:43;;;;;;;3.72;2.00;;;10.40;42.50;;;;;;6184808;28;20496;-76
2021/04/14 01:22:45;;;;;;;4.25;2.10;;;10.40;42.70;;;;;;6201591;28;20027;-76
2021/04/14 01:25:46;;;;;;;8.68;3.28;;;10.40;42.70;;;;;;6201070;28;20173;-75
2021/04/14 01:28:47;;;;;;;5.90;2.92;;;10.40;43.00;;;;;;6200987;28;20065;-75
2021/04/14 01:31:48;;;;;;;3.20;2.35;;;10.40;43.10;;;;;;6201024;28;20105;-75
2021/04/14 01:34:49;;;;;;;4.47;2.03;;;10.40;42.90;;;;;;6201198;28;20033;-75
2021/04/14 01:37:51;;;;;;;5.45;2.45;;;10.30;43.10;;;;;;6184290;28;20373;-75
2021/04/14 01:40:52;;;;;;;4.07;1.80;;;10.30;43.00;;;;;;6203347;28;20027;-75
2021/04/14 01:43:53;;;;;;;7.43;2.17;;;10.30;43.10;;;;;;6205496;28;20064;-75
2021/04/14 01:46:54;;;;;;;1.80;1.27;;;10.30;43.10;;;;;;6205414;28;20034;-75
2021/04/14 01:49:55;;;;;;;4.07;2.03;;;10.30;43.20;;;;;;6189016;28;20113;-75
2021/04/14 01:52:56;;;;;;;2.80;1.80;;;10.20;43.20;;;;;;6204679;28;20062;-75
2021/04/14 01:55:57;;;;;;;3.60;1.48;;;10.20;43.70;;;;;;6204977;28;20062;-75
2021/04/14 01:58:58;;;;;;;2.88;1.52;;;10.10;44.00;;;;;;6205903;28;20369;-74
2021/04/14 02:01:58;;;;;;;3.03;1.58;;;10.10;44.30;;;;;;6204710;28;20034;-73
2021/04/14 02:04:59;;;;;;;3.22;1.90;;;10.00;44.50;;;;;;6204773;28;20045;-75
2021/04/14 02:08:02;;;;;;;3.72;2.10;;;9.90;44.80;;;;;;6204644;28;20054;-74
2021/04/14 02:11:05;;;;;;;4.43;2.30;;;9.90;45.00;;;;;;6205651;28;20066;-74
2021/04/14 02:14:09;;;;;;;3.45;2.10;;;9.80;44.90;;;;;;6204828;28;20062;-76
2021/04/14 02:17:11;;;;;;;4.45;2.50;;;9.70;44.70;;;;;;6205792;28;20105;-74
2021/04/14 02:20:13;;;;;;;4.07;2.25;;;9.70;44.70;;;;;;6204693;28;20084;-75
2021/04/14 02:23:27;;;;;;;5.95;2.13;;;9.60;44.70;;;;;;6204706;28;20035;-74
2021/04/14 02:26:29;;;;;;;6.22;2.15;;;9.50;44.60;;;;;;6204163;28;20034;-74
2021/04/14 02:29:29;;;;;;;4.95;2.13;;;9.50;44.70;;;;;;6204312;28;20044;-76
2021/04/14 02:32:30;;;;;;;3.53;2.20;;;9.40;44.60;;;;;;6204259;28;20393;-75
2021/04/14 02:35:33;;;;;;;4.13;2.10;;;9.40;44.60;;;;;;6204566;28;20031;-75
2021/04/14 02:38:35;;;;;;;5.10;2.35;;;9.40;44.50;;;;;;6203822;28;20065;-75
2021/04/14 02:41:36;;;;;;;4.50;1.77;;;9.40;44.50;;;;;;6187702;28;20045;-75
2021/04/14 02:44:37;;;;;;;4.25;2.08;;;9.40;44.50;;;;;;6204417;28;20040;-76
2021/04/14 02:47:38;;;;;;;2.60;1.92;;;9.40;44.80;;;;;;6187554;28;20145;-75
2021/04/14 02:50:39;;;;;;;2.70;1.75;;;9.40;45.60;;;;;;6204442;28;20030;-76
2021/04/14 02:53:40;;;;;;;4.55;1.83;;;9.40;45.80;;;;;;6193132;28;20041;-76
2021/04/14 02:56:41;;;;;;;13.68;2.70;;;9.40;46.30;;;;;;6177495;28;20111;-75
2021/04/14 02:59:42;;;;;;;3.85;2.35;;;9.40;46.60;;;;;;6178564;28;20030;-75
2021/04/14 03:02:44;;;;;;;2.88;2.05;;;9.30;46.70;;;;;;6178666;28;20133;-74
2021/04/14 03:05:45;;;;;;;4.20;2.15;;;9.30;46.70;;;;;;6179470;28;20344;-74
2021/04/14 03:08:47;;;;;;;6.00;2.35;;;9.20;46.70;;;;;;6179183;28;20442;-75
2021/04/14 03:11:48;;;;;;;4.53;2.40;;;9.10;46.60;;;;;;6162896;28;20446;-75
2021/04/14 03:14:49;;;;;;;4.68;2.58;;;9.10;46.50;;;;;;6178910;28;20047;-75
2021/04/14 03:17:50;;;;;;;8.13;2.78;;;9.10;46.40;;;;;;6178892;28;20023;-75
2021/04/14 03:20:54;;;;;;;4.00;1.90;;;9.10;46.30;;;;;;6183422;28;20362;-75
2021/04/14 03:23:55;;;;;;;8.65;2.67;;;9.10;46.10;;;;;;6202902;28;20030;-75
2021/04/14 03:26:55;;;;;;;3.35;2.67;;;9.10;46.10;;;;;;6203197;28;20049;-75
2021/04/14 03:29:56;;;;;;;4.88;2.00;;;9.10;46.00;;;;;;6203702;28;20034;-75
2021/04/14 03:32:58;;;;;;;5.03;2.65;;;9.10;46.20;;;;;;6203423;28;20041;-75
2021/04/14 03:36:00;;;;;;;4.15;2.78;;;9.00;46.30;;;;;;6186041;28;20026;-75
2021/04/14 03:39:01;;;;;;;4.90;2.55;;;9.00;46.50;;;;;;6202193;28;20077;-75
2021/04/14 03:42:02;;;;;;;5.28;2.47;;;8.90;46.60;;;;;;6202866;28;20124;-76
2021/04/14 03:45:11;;;;;;;8.32;2.38;;;8.90;46.70;;;;;;6192559;28;20034;-74
2021/04/14 03:48:12;;;;;;;7.30;3.20;;;8.90;46.80;;;;;;6178029;28;20074;-75
2021/04/14 03:55:36;;;;;;;3.45;2.10;;;8.80;46.70;;;;;;6203607;28;20041;-76
2021/04/14 03:58:39;;;;;;;4.10;2.10;;;8.80;46.90;;;;;;6202253;28;20049;-76
2021/04/14 04:01:40;;;;;;;8.77;2.75;;;8.70;47.00;;;;;;6185886;28;20046;-74
2021/04/14 04:04:41;;;;;;;4.95;2.30;;;8.70;47.10;;;;;;6202852;28;20034;-75
2021/04/14 04:07:42;;;;;;;4.45;2.20;;;8.70;47.20;;;;;;6202487;28;20103;-74
2021/04/14 04:10:43;;;;;;;6.70;3.05;;;8.70;47.30;;;;;;6203981;28;20089;-75
2021/04/14 04:13:44;;;;;;;7.28;2.33;;;8.70;47.20;;;;;;6186448;28;20074;-74
2021/04/14 04:16:44;;;;;;;7.15;2.40;;;8.70;47.20;;;;;;6202332;28;20117;-75
2021/04/14 04:19:47;;;;;;;4.95;2.38;;;8.70;47.30;;;;;;6202320;28;20030;-75
2021/04/14 04:22:48;;;;;;;3.13;1.98;;;8.70;47.40;;;;;;6203240;28;20070;-75
2021/04/14 04:25:49;;;;;;;3.38;2.10;;;8.70;47.40;;;;;;6201825;28;20497;-75
2021/04/14 04:28:50;;;;;;;4.10;2.10;;;8.70;47.50;;;;;;6202746;28;20039;-75
2021/04/14 04:31:52;;;;;;;3.78;2.15;;;8.60;47.50;;;;;;6201708;28;20038;-75
2021/04/14 04:34:54;;;;;;;6.38;2.63;;;8.60;47.50;;;;;;6201842;28;20479;-75
2021/04/14 04:37:55;;;;;;;4.18;2.38;;;8.60;47.60;;;;;;6201351;28;20500;-75
2021/04/14 04:40:56;;;;;;;4.63;3.08;;;8.60;47.70;;;;;;6201388;28;20034;-75
2021/04/14 04:43:57;;;;;;;8.50;2.92;;;8.60;47.90;;;;;;6202312;28;20026;-75
2021/04/14 04:46:58;;;;;;;6.10;2.70;;;8.60;48.00;;;;;;6201244;28;20034;-75
2021/04/14 04:49:59;;;;;;;8.05;2.65;;;8.60;48.10;;;;;;6201281;28;20034;-75
2021/04/14 04:53:09;;;;;;;5.35;2.67;;;8.60;48.10;;;;;;6201938;28;20081;-75
2021/04/14 04:56:10;;;;;;;12.50;3.42;;;8.60;48.40;;;;;;6201016;28;20113;-75
2021/04/14 04:59:10;;;;;;;7.05;3.40;;;8.60;48.70;;;;;;6201093;28;20034;-74
2021/04/14 05:02:15;;;;;;;4.45;2.65;;;8.60;48.80;;;;;;6200681;28;20054;-75
2021/04/14 05:05:20;;;;;;;5.97;3.42;;;8.50;49.20;;;;;;6202017;28;20042;-75
2021/04/14 05:08:21;;;;;;;3.55;2.28;;;8.40;49.50;;;;;;6200915;28;20038;-76
2021/04/14 05:11:22;;;;;;;4.28;2.67;;;8.30;49.80;;;;;;6200918;28;20041;-75
2021/04/14 05:14:22;;;;;;;10.00;2.55;;;8.30;50.40;;;;;;6201384;28;20026;-75
2021/04/14 05:17:23;;;;;;;6.50;2.28;;;8.20;50.50;;;;;;6206750;28;20058;-76
2021/04/14 05:20:26;;;;;;;4.32;2.50;;;8.20;50.60;;;;;;6205731;28;20046;-76
2021/04/14 05:23:27;;;;;;;4.95;2.17;;;8.10;50.60;;;;;;6205328;28;20177;-77
2021/04/14 05:26:28;;;;;;;2.70;1.95;;;8.10;50.60;;;;;;6205484;28;20034;-76
2021/04/14 05:29:29;;;;;;;4.60;2.55;;;8.10;50.60;;;;;;6206592;28;20026;-77
2021/04/14 05:32:30;;;;;;;5.65;2.55;;;8.20;50.70;;;;;;6221545;28;20421;-77
2021/04/14 05:35:31;;;;;;;4.75;2.35;;;8.20;50.60;;;;;;6221847;28;20045;-77
2021/04/14 05:38:33;;;;;;;8.65;2.30;;;8.20;50.60;;;;;;6206578;28;20034;-77
2021/04/14 05:41:36;;;;;;;5.72;2.08;;;8.20;50.50;;;;;;6222175;28;20042;-76
2021/04/14 05:44:40;;;;;;;3.63;2.50;;;8.30;50.30;;;;;;6206809;28;20022;-83
2021/04/14 05:47:47;;;;;;;6.45;2.75;;;8.30;50.10;;;;;;6207117;28;20421;-81
2021/04/14 05:50:49;;;;;;;9.73;2.88;;;8.40;50.00;;;;;;6206250;28;20022;-78
2021/04/14 05:53:51;;;;;;;3.90;2.75;;;8.40;49.90;;;;;;6205390;28;20343;-80
2021/04/14 05:56:53;;;;;;;5.57;3.05;;;8.50;49.70;;;;;;6205332;28;20187;-81
2021/04/14 05:59:54;;;;;;;7.07;3.40;;;8.50;49.50;;;;;;6189624;28;20093;-81
2021/04/14 06:02:55;;;;;;;5.85;3.10;;;8.50;49.70;;;;;;6204780;28;20050;-79
2021/04/14 06:05:58;;;;;;;6.90;2.92;;;8.60;49.30;;;;;;6204708;28;20052;-79
2021/04/14 06:08:59;;;;;;;3.78;2.63;;;8.60;49.20;;;;;;6204638;28;20034;-80
2021/04/14 06:12:00;;;;;;;3.88;2.55;;;8.70;49.20;;;;;;6204870;28;20034;-80
2021/04/14 06:15:01;;;;;;;8.38;2.97;;;8.80;49.10;;;;;;6204606;28;20026;-77
2021/04/14 06:18:02;;;;;;;6.05;3.47;;;8.80;49.00;;;;;;6205531;28;20027;-77
2021/04/14 06:21:04;;;;;;;6.53;3.58;;;8.90;49.00;;;;;;6204196;28;20037;-78
2021/04/14 06:24:06;;;;;;;11.05;4.32;;;8.90;48.90;;;;;;6204239;28;20038;-77
2021/04/14 06:27:08;;;;;;;9.68;4.05;;;8.90;48.90;;;;;;6187698;28;20417;-78
2021/04/14 06:30:10;;;;;;;6.10;3.38;;;9.00;48.90;;;;;;6204417;28;20030;-77
2021/04/14 06:33:11;;;;;;;10.57;4.72;;;9.10;48.90;;;;;;6204892;28;20034;-77
2021/04/14 06:36:12;;;;;;;5.72;3.83;;;9.10;48.80;;;;;;6204008;28;20026;-79
2021/04/14 06:39:15;;;;;;;9.50;3.97;;;9.10;48.70;;;;;;6203189;28;20441;-77
2021/04/14 06:42:29;;;;;;;11.20;3.08;;;9.20;49.30;;;;;;6203324;28;20395;-78
2021/04/14 06:45:43;;;;;;;11.07;4.20;;;9.20;48.60;;;;;;6203663;28;20046;-77
2021/04/14 06:49:35;;;;;;;8.13;3.88;;;9.30;48.60;;;;;;6203667;28;20034;-77
2021/04/14 06:52:53;;;;;;;7.80;3.63;;;9.30;48.50;;;;;;6162369;28;20039;-77
2021/04/14 06:56:01;;;;;;;8.00;4.07;;;9.40;48.40;;;;;;6142951;29;20032;-78
2021/04/14 06:59:06;;;;;;;8.45;3.63;;;9.50;48.30;;;;;;6155092;29;20055;-76
2021/04/14 07:02:17;;;;;;;15.90;4.78;;;9.50;48.00;;;;;;6138209;29;20466;-77
2021/04/14 07:05:33;;;;;;;12.95;4.00;;;9.60;47.90;;;;;;6154975;29;20046;-77
2021/04/14 07:08:43;;;;;;;10.80;3.97;;;9.70;47.80;;;;;;6122000;29;20153;-77
2021/04/14 07:11:45;;;;;;;11.45;4.55;;;9.80;47.50;;;;;;6153978;28;20098;-77
2021/04/14 07:14:47;;;;;;;13.27;4.10;;;9.80;47.30;;;;;;6154167;29;20114;-75
2021/04/14 07:18:20;;;;;;;7.65;3.75;;;9.90;47.30;;;;;;6137788;29;20031;-76
2021/04/14 07:21:31;;;;;;;14.50;4.25;;;10.00;47.20;;;;;;6122311;29;20043;-76
2021/04/14 07:24:38;;;;;;;18.70;5.28;;;10.00;46.90;;;;;;6137581;29;20035;-77
2021/04/14 07:28:12;;;;;;;16.83;4.60;;;10.10;46.80;;;;;;6164252;28;20053;-76
2021/04/14 07:31:22;;;;;;;9.10;4.90;;;10.20;46.70;;;;;;6186612;28;20078;-75
2021/04/14 07:34:42;;;;;;;11.40;5.38;;;10.30;46.50;;;;;;6186906;28;20030;-77
2021/04/14 07:37:57;;;;;;;10.15;4.30;;;10.50;46.30;;;;;;6202254;28;20022;-76
2021/04/14 07:41:37;;;;;;;11.20;5.10;;;10.60;46.00;;;;;;6203084;28;20034;-77
2021/04/14 07:45:09;;;;;;;19.42;4.95;;;10.70;45.80;;;;;;6153669;29;20557;-77
2021/04/14 07:48:34;;;;;;;8.88;4.47;;;10.90;45.50;;;;;;6137419;29;20139;-76
2021/04/14 07:51:35;;;;;;;10.85;4.35;;;11.00;45.00;;;;;;6136901;28;20031;-76
2021/04/14 07:54:39;;;;;;;11.57;4.93;;;11.10;44.70;;;;;;6121230;29;20386;-76
2021/04/14 07:57:40;;;;;;;13.70;4.20;;;11.10;44.60;;;;;;6137698;29;20089;-76
2021/04/14 08:00:44;;;;;;;10.35;5.22;;;11.30;44.60;;;;;;6137872;29;20122;-76
2021/04/14 08:03:46;;;;;;;12.38;4.47;;;11.40;44.30;;;;;;6139484;29;20371;-75
2021/04/14 08:06:47;;;;;;;14.35;5.07;;;11.60;44.10;;;;;;6138275;29;20509;-76
2021/04/14 08:09:52;;;;;;;11.30;5.75;;;11.70;43.70;;;;;;6152685;29;20035;-75
2021/04/14 08:12:59;;;;;;;11.60;5.18;;;11.90;43.40;;;;;;6152348;29;20102;-76
2021/04/14 08:16:17;;;;;;;10.43;5.22;;;11.90;43.10;;;;;;6152915;29;20039;-76
2021/04/14 08:19:18;;;;;;;13.65;5.80;;;11.90;43.00;;;;;;6152401;29;20106;-75
2021/04/14 08:22:22;;;;;;;9.32;4.93;;;12.10;43.00;;;;;;6181837;28;20473;-76
2021/04/14 08:25:34;;;;;;;10.85;4.55;;;12.10;42.90;;;;;;6185082;28;20487;-77
2021/04/14 08:28:43;;;;;;;11.45;5.25;;;12.10;43.40;;;;;;6169375;28;20030;-75
2021/04/14 08:31:49;;;;;;;9.02;5.20;;;12.20;42.70;;;;;;6201579;28;20321;-76
2021/04/14 08:35:01;;;;;;;15.02;5.32;;;12.40;42.60;;;;;;6185032;28;20034;-76
2021/04/14 08:38:16;;;;;;;12.70;6.25;;;12.50;42.00;;;;;;6201191;28;20022;-76
2021/04/14 08:41:30;;;;;;;11.60;5.63;;;12.60;41.90;;;;;;6202635;28;20061;-76
2021/04/14 08:44:35;;;;;;;9.90;5.20;;;12.70;41.60;;;;;;6201697;28;20034;-77
2021/04/14 08:47:38;;;;;;;7.57;4.82;;;12.80;41.30;;;;;;6184214;28;20036;-77
2021/04/14 08:50:54;;;;;;;9.40;5.50;;;12.90;41.30;;;;;;6201213;28;20077;-76
2021/04/14 08:53:58;;;;;;;10.18;5.15;;;13.10;41.00;;;;;;6200386;28;20030;-75
2021/04/14 08:57:00;;;;;;;10.40;5.03;;;13.20;40.30;;;;;;6201164;28;20027;-77
2021/04/14 09:00:01;;;;;;;9.10;4.88;;;13.30;40.30;;;;;;6201992;28;20310;-76
2021/04/14 09:03:09;;;;;;;12.05;5.82;;;13.40;40.20;;;;;;6201843;28;20038;-76
2021/04/14 09:06:11;;;;;;;11.55;6.22;;;13.50;40.00;;;;;;6200842;28;20450;-77
2021/04/14 09:09:19;;;;;;;13.05;5.60;;;13.60;39.80;;;;;;6200783;28;20034;-76
2021/04/14 09:12:34;;;;;;;13.00;5.43;;;13.70;39.50;;;;;;6200825;28;20038;-78
2021/04/14 09:15:54;;;;;;;9.00;5.03;;;13.70;39.40;;;;;;6202269;28;20333;-76
2021/04/14 09:19:09;;;;;;;10.75;6.03;;;13.70;39.50;;;;;;6202166;28;20141;-76
2021/04/14 09:22:13;;;;;;;15.18;6.85;;;13.70;39.30;;;;;;6201744;28;20027;-76
2021/04/14 09:25:28;;;;;;;12.30;5.43;;;13.80;39.30;;;;;;6201002;28;20106;-76
2021/04/14 09:28:34;;;;;;;8.52;5.13;;;13.80;39.20;;;;;;6200757;28;20114;-75
2021/04/14 09:31:49;;;;;;;11.93;5.80;;;13.90;39.10;;;;;;6200977;28;20061;-77
2021/04/14 09:34:50;;;;;;;10.63;5.70;;;14.00;38.90;;;;;;6200678;28;20092;-77
2021/04/14 09:38:03;;;;;;;17.75;6.55;;;14.00;38.70;;;;;;6200277;28;20353;-77
2021/04/14 09:41:29;;;;;;;12.23;5.63;;;14.00;38.70;;;;;;6200508;28;20113;-77
2021/04/14 09:44:46;;;;;;;9.88;5.53;;;14.00;38.70;;;;;;6200130;28;20064;-76
2021/04/14 09:47:47;;;;;;;10.50;5.25;;;14.10;38.60;;;;;;6200178;28;20385;-76
2021/04/14 09:50:49;;;;;;;8.77;4.90;;;14.10;38.70;;;;;;6184046;28;20054;-77
2021/04/14 09:53:57;;;;;;;7.30;4.68;;;14.20;38.80;;;;;;6199448;28;20030;-76
2021/04/14 09:57:00;;;;;;;7.22;4.43;;;14.30;38.50;;;;;;6201355;28;20097;-75
2021/04/14 10:00:03;;;;;;;9.35;4.75;;;14.40;38.20;;;;;;6200123;28;20030;-77
2021/04/14 10:03:19;;;;;;;11.00;4.68;;;14.50;38.00;;;;;;6204253;28;20117;-76
2021/04/14 10:06:22;;;;;;;11.80;4.32;;;14.60;37.90;;;;;;6203985;28;20072;-76
2021/04/14 10:09:29;;;;;;;8.63;4.38;;;14.70;37.60;;;;;;6187842;28;20042;-78
2021/04/14 10:12:30;;;;;;;8.38;3.80;;;14.70;37.30;;;;;;6204866;28;20026;-76
2021/04/14 10:15:40;;;;;;;6.20;3.33;;;14.70;37.10;;;;;;6204406;28;20034;-75
2021/04/14 10:18:42;;;;;;;8.35;3.53;;;14.80;36.60;;;;;;6204173;28;20089;-77
2021/04/14 10:21:44;;;;;;;11.10;3.90;;;14.70;36.20;;;;;;6171637;28;20113;-74
2021/04/14 10:24:45;;;;;;;4.00;2.42;;;15.00;36.30;;;;;;6203738;28;20390;-77
2021/04/14 10:27:48;;;;;;;5.95;3.45;;;14.90;35.90;;;;;;6203864;28;20117;-75
2021/04/14 10:31:14;;;;;;;5.00;2.85;;;15.00;35.50;;;;;;6203559;28;20369;-76
2021/04/14 10:34:35;;;;;;;4.72;2.65;;;15.00;34.80;;;;;;6187373;28;20040;-77
2021/04/14 10:37:42;;;;;;;7.15;2.90;;;15.30;34.90;;;;;;6204095;28;20036;-76
2021/04/14 10:40:44;;;;;;;4.68;2.80;;;15.20;34.40;;;;;;6204983;28;20121;-78
2021/04/14 10:43:51;;;;;;;6.32;3.20;;;15.30;34.30;;;;;;6205449;28;20465;-77
2021/04/14 10:47:04;;;;;;;12.27;3.63;;;15.50;34.20;;;;;;6197146;28;20035;-80
2021/04/14 10:50:25;;;;;;;15.55;4.90;;;16.00;33.70;;;;;;6208755;28;20034;-78
2021/04/14 10:53:36;;;;;;;6.00;3.20;;;16.60;32.90;;;;;;6207654;28;20425;-78
2021/04/14 10:56:40;;;;;;;4.40;2.90;;;17.20;32.40;;;;;;6208912;28;20094;-79
2021/04/14 10:59:44;;;;;;;5.65;3.22;;;17.70;31.40;;;;;;6210168;28;20074;-79
2021/04/14 11:02:50;;;;;;;8.00;3.42;;;18.20;30.50;;;;;;6208775;28;20144;-78
2021/04/14 11:05:59;;;;;;;5.95;3.60;;;18.60;30.00;;;;;;6208429;28;20045;-77
2021/04/14 11:09:04;;;;;;;7.65;4.28;;;19.00;29.70;;;;;;6208788;28;20125;-80
2021/04/14 11:12:10;;;;;;;8.98;3.63;;;19.30;29.10;;;;;;6192566;28;20058;-80
2021/04/14 11:15:23;;;;;;;5.18;3.42;;;19.50;29.00;;;;;;6212607;28;20023;-78
2021/04/14 11:18:39;;;;;;;5.70;3.35;;;19.90;28.60;;;;;;6207253;28;20030;-79
2021/04/14 11:21:43;;;;;;;5.32;3.60;;;20.20;28.10;;;;;;6222888;28;20085;-76
2021/04/14 11:24:49;;;;;;;5.65;3.20;;;20.30;27.20;;;;;;6223710;28;20034;-78
2021/04/14 11:28:05;;;;;;;9.98;3.90;;;20.20;27.40;;;;;;6224545;28;20030;-76
2021/04/14 11:31:10;;;;;;;6.25;3.88;;;20.20;27.40;;;;;;6224336;28;20045;-77
2021/04/14 11:34:30;;;;;;;6.65;3.60;;;20.30;27.50;;;;;;6224174;28;20461;-76
2021/04/14 11:37:39;;;;;;;5.38;3.17;;;20.40;27.40;;;;;;6224951;28;20038;-77
2021/04/14 11:41:17;;;;;;;5.45;3.35;;;20.50;27.10;;;;;;6210088;28;20034;-77
2021/04/14 11:44:37;;;;;;;7.68;3.50;;;20.40;26.80;;;;;;6184526;28;20027;-78
2021/04/14 11:47:39;;;;;;;7.97;3.72;;;20.20;26.80;;;;;;6184842;28;20031;-78
2021/04/14 11:50:45;;;;;;;8.27;3.38;;;20.10;27.00;;;;;;6183894;28;20035;-76
2021/04/14 11:53:55;;;;;;;6.18;3.42;;;20.00;26.90;;;;;;6226019;28;20044;-77
2021/04/14 11:57:17;;;;;;;5.78;3.42;;;20.00;27.00;;;;;;6236154;28;20033;-79
2021/04/14 12:00:21;;;;;;;4.80;3.30;;;20.20;26.90;;;;;;6211617;28;20045;-78
2021/04/14 12:03:46;;;;;;;6.78;3.72;;;20.50;26.50;;;;;;6195273;28;20068;-78
2021/04/14 12:06:50;;;;;;;4.60;2.95;;;20.70;26.20;;;;;;6178862;28;20061;-79
2021/04/14 12:09:55;;;;;;;5.65;3.42;;;20.90;26.00;;;;;;6209179;28;20117;-78
2021/04/14 12:12:57;;;;;;;4.80;3.25;;;21.20;25.40;;;;;;6208208;28;20049;-80
2021/04/14 12:16:06;;;;;;;4.95;3.25;;;21.50;25.00;;;;;;6212261;28;20038;-79
2021/04/14 12:19:11;;;;;;;6.10;3.80;;;21.80;24.80;;;;;;6209163;28;20564;-80
2021/04/14 12:22:16;;;;;;;4.35;3.20;;;22.30;24.20;;;;;;6206632;28;20061;-79
2021/04/14 12:25:19;;;;;;;7.97;4.13;;;22.60;23.80;;;;;;6183489;28;20034;-76
2021/04/14 12:28:20;;;;;;;5.40;3.30;;;23.10;23.80;;;;;;6169817;28;20042;-79
2021/04/14 12:31:31;;;;;;;6.07;3.83;;;23.70;23.00;;;;;;6184757;28;20035;-78
2021/04/14 12:34:35;;;;;;;5.82;3.55;;;24.20;22.30;;;;;;6186898;28;20578;-78
2021/04/14 12:37:36;;;;;;;8.25;3.72;;;24.40;21.40;;;;;;6170910;28;20050;-79
2021/04/14 12:40:44;;;;;;;16.13;3.72;;;24.50;21.50;;;;;;6185616;28;20423;-78
2021/04/14 12:43:45;;;;;;;8.17;3.73;;;24.80;21.30;;;;;;6187245;28;20035;-79
2021/04/14 12:46:53;;;;;;;4.82;3.50;;;25.20;20.60;;;;;;6186074;28;20094;-78
2021/04/14 12:49:57;;;;;;;7.97;3.58;;;25.40;20.40;;;;;;6184444;28;20045;-78
2021/04/14 12:53:13;;;;;;;5.88;3.40;;;25.90;19.90;;;;;;6184301;28;20054;-77
2021/04/14 12:56:28;;;;;;;4.30;3.25;;;26.30;19.60;;;;;;6188218;28;20046;-79
2021/04/14 13:00:13;;;;;;;6.83;3.67;;;26.30;19.10;;;;;;6186522;28;20031;-80
2021/04/14 13:03:45;;;;;;;4.53;3.35;;;26.20;19.30;;;;;;6189735;28;20076;-76
2021/04/14 13:07:13;;;;;;;6.35;3.30;;;26.50;18.80;;;;;;6207501;28;20045;-77
2021/04/14 13:10:17;;;;;;;5.68;3.30;;;27.10;18.80;;;;;;6193330;28;20568;-80
2021/04/14 13:13:25;;;;;;;8.00;3.53;;;27.50;18.40;;;;;;6177137;28;20128;-78
2021/04/14 13:17:14;;;;;;;6.30;3.00;;;27.60;18.00;;;;;;6209060;28;20062;-79
2021/04/14 13:20:21;;;;;;;7.13;3.45;;;28.10;18.30;;;;;;6186005;28;20035;-79
2021/04/14 13:24:14;;;;;;;9.18;3.55;;;28.90;17.50;;;;;;6168866;28;20410;-78
2021/04/14 13:27:35;;;;;;;6.68;3.58;;;28.90;17.30;;;;;;6109972;29;20432;-81
2021/04/14 13:30:52;;;;;;;4.15;2.72;;;28.80;17.20;;;;;;6110358;29;20064;-78
2021/04/14 13:34:00;;;;;;;5.32;3.10;;;28.70;17.10;;;;;;6096266;29;20039;-78
2021/04/14 13:37:12;;;;;;;6.97;2.83;;;28.90;16.90;;;;;;6098036;29;20071;-77
2021/04/14 13:40:46;;;;;;;5.90;3.22;;;29.00;16.60;;;;;;6119283;29;20070;-80
2021/04/14 13:44:10;;;;;;;4.28;3.25;;;28.80;16.60;;;;;;6122002;29;20072;-81
2021/04/14 13:47:35;;;;;;;5.43;3.15;;;28.70;16.90;;;;;;6117545;29;20035;-79
2021/04/14 13:51:05;;;;;;;7.22;3.30;;;29.00;16.90;;;;;;6100107;29;20039;-79
2021/04/14 13:54:10;;;;;;;4.97;3.33;;;29.50;16.40;;;;;;6102644;29;20047;-79
2021/04/14 13:57:27;;;;;;;5.85;3.50;;;29.70;16.30;;;;;;6111625;29;20068;-77
2021/04/14 14:00:38;;;;;;;5.60;3.42;;;29.80;16.30;;;;;;6114948;29;20050;-77
2021/04/14 14:03:40;;;;;;;8.20;3.30;;;29.60;16.20;;;;;;6160839;28;20050;-78
2021/04/14 14:07:29;;;;;;;6.10;3.33;;;29.40;16.30;;;;;;6210895;28;20150;-80
2021/04/14 14:11:24;;;;;;;5.38;3.60;;;29.30;16.30;;;;;;6196510;28;20034;-77
2021/04/14 14:14:35;;;;;;;5.60;3.42;;;28.20;16.70;;;;;;6194228;28;20038;-80
2021/04/14 14:17:45;;;;;;;5.53;3.53;;;26.80;17.50;;;;;;6215857;28;20030;-80
2021/04/14 14:20:56;;;;;;;5.18;3.17;;;25.40;18.60;;;;;;6210495;28;20030;-77
2021/04/14 14:24:00;;;;;;;7.60;3.30;;;24.20;19.80;;;;;;6211889;28;20035;-78
2021/04/14 14:27:06;;;;;;;5.70;3.60;;;23.10;20.80;;;;;;6210847;28;20026;-78
2021/04/14 14:30:11;;;;;;;4.93;3.17;;;22.30;21.80;;;;;;6212599;28;20037;-78
2021/04/14 14:33:13;;;;;;;7.60;3.67;;;21.60;22.40;;;;;;6210654;28;20045;-78
2021/04/14 14:36:17;;;;;;;5.05;3.15;;;21.00;22.90;;;;;;6210268;28;20049;-79
2021/04/14 14:39:49;;;;;;;6.28;3.47;;;20.50;23.40;;;;;;6211177;28;20445;-78
2021/04/14 14:43:13;;;;;;;4.82;3.05;;;20.20;23.70;;;;;;6209193;28;20079;-79
2021/04/14 14:46:41;;;;;;;6.10;3.45;;;20.10;24.10;;;;;;6210032;28;20050;-78
2021/04/14 14:49:49;;;;;;;8.02;3.60;;;19.90;24.30;;;;;;6211664;28;20042;-77
2021/04/14 14:52:54;;;;;;;7.10;3.28;;;19.90;24.50;;;;;;6213297;28;20445;-78
2021/04/14 14:56:07;;;;;;;5.20;3.20;;;19.80;24.60;;;;;;6196486;28;20113;-80
2021/04/14 14:59:45;;;;;;;5.93;3.30;;;19.70;24.70;;;;;;6213641;28;20027;-79
2021/04/14 15:02:53;;;;;;;4.97;3.20;;;19.70;24.90;;;;;;6163756;28;20062;-78
2021/04/14 15:05:54;;;;;;;5.10;3.38;;;19.70;25.00;;;;;;6132217;29;20097;-77
2021/04/14 15:08:59;;;;;;;8.27;3.65;;;19.60;25.10;;;;;;6146232;29;20453;-79
2021/04/14 15:12:00;;;;;;;6.97;3.88;;;19.50;25.20;;;;;;6131499;29;20203;-78
2021/04/14 15:15:05;;;;;;;6.10;3.33;;;19.40;25.30;;;;;;6149376;29;20055;-79
2021/04/14 15:18:06;;;;;;;6.97;3.05;;;19.20;25.60;;;;;;6148067;29;20031;-79
2021/04/14 15:21:11;;;;;;;6.15;3.15;;;19.00;25.80;;;;;;6150323;29;20039;-79
2021/04/14 15:24:22;;;;;;;5.65;3.15;;;18.80;26.00;;;;;;6148773;29;20027;-78
2021/04/14 15:27:31;;;;;;;4.43;3.13;;;18.60;26.20;;;;;;6115704;29;20113;-79
2021/04/14 15:30:38;;;;;;;6.53;3.70;;;18.50;26.40;;;;;;6131440;29;20115;-79
2021/04/14 15:33:51;;;;;;;6.03;3.33;;;18.40;26.40;;;;;;6129115;29;20044;-78
2021/04/14 15:37:02;;;;;;;6.00;3.40;;;18.50;26.40;;;;;;6127644;29;20117;-80
2021/04/14 15:40:11;;;;;;;7.78;3.40;;;18.50;26.30;;;;;;6156282;29;20399;-81
2021/04/14 15:43:12;;;;;;;6.40;3.30;;;18.60;26.30;;;;;;6148156;28;20130;-79
2021/04/14 15:46:13;;;;;;;5.07;3.00;;;18.70;26.10;;;;;;6178674;28;20120;-79
2021/04/14 15:49:18;;;;;;;6.45;3.50;;;18.80;26.10;;;;;;6162399;28;20117;-80
2021/04/14 15:52:20;;;;;;;5.10;2.80;;;18.90;25.90;;;;;;6162483;28;20098;-80
2021/04/14 15:55:27;;;;;;;5.50;3.47;;;18.90;25.80;;;;;;6161932;28;20031;-79
2021/04/14 15:58:30;;;;;;;6.35;3.42;;;19.20;25.70;;;;;;6162639;28;20027;-78
2021/04/14 16:01:35;;;;;;;4.25;2.92;;;20.10;24.80;;;;;;6162555;28;20042;-81
2021/04/14 16:04:35;;;;;;;8.18;3.03;;;20.80;24.00;;;;;;6161670;28;20035;-80
2021/04/14 16:07:37;;;;;;;5.55;3.30;;;21.60;23.20;;;;;;6177953;28;20043;-79
2021/04/14 16:10:38;;;;;;;5.05;2.85;;;22.30;22.20;;;;;;6177429;28;20038;-79
2021/04/14 16:13:42;;;;;;;5.05;2.72;;;22.30;22.00;;;;;;6178135;28;20109;-80
2021/04/14 16:16:45;;;;;;;4.90;3.15;;;22.60;21.90;;;;;;6161120;28;20462;-81
2021/04/14 16:19:48;;;;;;;3.05;2.42;;;23.40;21.20;;;;;;6177485;28;20103;-80